BBC Kwiatkowski — V2DT5 — position and weather

sailwx.info

Track history (hours):
 
Tides and Currents Weather Stations Pressure Air Temp Water Temp Dewpoint Dewpoint Depression Visibility Wind Speed Wind Dir Waves Ship Positions

BBC Kwiatkowski

Last reported at 2018-Feb-02 20:43 UTC. Time now 2018-Feb-20 14:08 UTC.
Position N 35°50' W 025°23'.
Warning: this ship's position is 17 days out of date.

Length 122 m; draft 5.6 m.

Type: Ship. MMSI: 305240000.

Date/timePositionNaut miles runAvg speedWind from/ knotsBaromVisibWave heightAir tempDewpointWater temp
2018-Feb-02 20:43N 35°50' W 025°23'513.1
2018-Feb-02 20:22N 35°54' W 025°20'513.1
2018-Feb-02 20:00N 35°59' W 025°17'1313.0
2018-Feb-02 19:00N 36°10' W 025°09'713.0
2018-Feb-02 18:30N 36°15' W 025°04'713.3
2018-Feb-02 18:00N 36°21' W 024°60'613.0
2018-Feb-02 17:30N 36°26' W 024°55'613.0
2018-Feb-02 17:00N 36°31' W 024°51'713.2
2018-Feb-02 16:31N 36°37' W 024°46'1313.2
2018-Feb-02 15:30N 36°48' W 024°38'1312.8
2018-Feb-02 14:30N 36°59' W 024°29'612.8
2018-Feb-02 14:00N 37°04' W 024°24'612.6
2018-Feb-02 13:31N 37°09' W 024°20'612.8
2018-Feb-02 13:00N 37°14' W 024°15'713.3
2018-Feb-02 12:30N 37°20' W 024°10'713.1
2018-Feb-02 12:01N 37°26' W 024°06'612.8
2018-Feb-02 11:31N 37°31' W 024°02'713.1
2018-Feb-02 11:00N 37°36' W 023°57'612.7
2018-Feb-02 10:30N 37°42' W 023°53'612.7
2018-Feb-02 10:00N 37°47' W 023°49'613.0
2018-Feb-02 09:30N 37°53' W 023°45'612.9
2018-Feb-02 09:00N 37°58' W 023°40'712.9
2018-Feb-02 08:30N 38°04' W 023°36'612.8
2018-Feb-02 08:00N 38°09' W 023°32'712.5
2018-Feb-02 07:28N 38°15' W 023°28'  
2018-Jan-29 16:00N 52°22' W 010°12'14 1.4
2018-Jan-29 06:20N 52°16' W 009°52'0 0.0
2018-Jan-28 19:50N 52°16' W 009°52'0 0.0
2018-Jan-27 22:29N 52°16' W 009°52'0 0.0
2018-Jan-27 20:04N 52°16' W 009°52'0 0.0
2018-Jan-27 19:38N 52°16' W 009°52'0 0.0
2018-Jan-27 11:07N 52°16' W 009°52'0 0.0
2018-Jan-27 06:22N 52°16' W 009°52'0 0.0
2018-Jan-27 00:10N 52°16' W 009°52'0 0.0
2018-Jan-26 22:44N 52°16' W 009°52'0 0.0
2018-Jan-26 21:13N 52°16' W 009°52'0 0.0
2018-Jan-26 19:46N 52°16' W 009°52'0 0.0
2018-Jan-26 19:16N 52°16' W 009°52'0 0.0
2018-Jan-26 17:16N 52°16' W 009°52'0 0.0
2018-Jan-26 15:21N 52°16' W 009°52'0 0.0
2018-Jan-26 13:50N 52°16' W 009°52'0 0.0
2018-Jan-26 12:22N 52°16' W 009°52'0 0.0
2018-Jan-26 11:53N 52°16' W 009°52'9 3.4
2018-Jan-26 09:18N 52°23' W 010°01'2 4.7
2018-Jan-26 08:55N 52°24' W 010°04'8 2.8
2018-Jan-26 06:09N 52°22' W 010°16'1 4.9
2018-Jan-26 05:55N 52°22' W 010°18'3 5.8
2018-Jan-26 05:25N 52°22' W 010°23'9 4.7
2018-Jan-26 03:31N 52°22' W 010°37'1 4.5
2018-Jan-26 03:22N 52°22' W 010°39'16 3.2
2018-Jan-25 22:15N 52°15' W 011°03'2 5.4
2018-Jan-25 21:55N 52°14' W 011°01'2 5.4
2018-Jan-25 21:27N 52°12' W 010°59'10 5.5
2018-Jan-25 19:37N 52°02' W 010°52'2 7.0
2018-Jan-25 19:24N 52°01' W 010°51'3 6.6
2018-Jan-25 18:55N 51°58' W 010°51'4 7.5
2018-Jan-25 18:19N 51°53' W 010°49'3 5.8
2018-Jan-25 17:46N 51°50' W 010°47'18 5.9
2018-Jan-25 14:41N 51°35' W 010°32'1 5.5
2018-Jan-25 14:30N 51°34' W 010°31'3 5.5
2018-Jan-25 13:59N 51°32' W 010°27'2 5.2
2018-Jan-25 13:30N 51°31' W 010°24'3 5.4
2018-Jan-25 13:00N 51°29' W 010°20'3 5.6
2018-Jan-25 12:30N 51°28' W 010°16'3 5.8
2018-Jan-25 12:00N 51°27' W 010°12'3 5.4
2018-Jan-25 11:31N 51°25' W 010°08'3 5.0
2018-Jan-25 11:00N 51°24' W 010°05'2 4.8
2018-Jan-25 10:30N 51°23' W 010°01'2 4.9
2018-Jan-25 10:00N 51°23' W 009°57'2 4.6
2018-Jan-25 09:30N 51°22' W 009°54'2 4.4
2018-Jan-25 09:00N 51°21' W 009°51'3 5.1
2018-Jan-25 08:31N 51°20' W 009°47'2 3.5
2018-Jan-25 08:01N 51°19' W 009°44'1 2.6
2018-Jan-25 07:31N 51°20' W 009°42'1 2.5
2018-Jan-25 07:01N 51°20' W 009°40'1 2.6
2018-Jan-25 06:31N 51°20' W 009°38'2 3.2
2018-Jan-25 06:01N 51°20' W 009°36'2 3.2
2018-Jan-25 05:31N 51°20' W 009°33'2 3.6
2018-Jan-25 05:00N 51°21' W 009°30'2 3.3
2018-Jan-25 04:30N 51°22' W 009°28'2 4.4
2018-Jan-25 04:01N 51°22' W 009°25'2 4.6
2018-Jan-25 03:30N 51°23' W 009°21'2 4.7
2018-Jan-25 03:01N 51°24' W 009°17'3 5.2
2018-Jan-25 02:31N 51°24' W 009°14'2 5.0
2018-Jan-25 02:01N 51°25' W 009°10'2 4.9
2018-Jan-25 01:31N 51°25' W 009°06'3 5.1
2018-Jan-25 01:00N 51°26' W 009°02'2 4.6
2018-Jan-25 00:31N 51°27' W 008°58'3 5.6
2018-Jan-25 00:01N 51°27' W 008°54'3 5.4
2018-Jan-24 23:30N 51°28' W 008°50'3 5.7
2018-Jan-24 23:00N 51°29' W 008°45'3 6.0
2018-Jan-24 22:31N 51°30' W 008°41'2 4.9
2018-Jan-24 22:00N 51°31' W 008°37'3 5.3
2018-Jan-24 21:30N 51°32' W 008°33'3 5.4
2018-Jan-24 21:01N 51°32' W 008°29'3 5.2
2018-Jan-24 20:30N 51°33' W 008°25'3 6.1
2018-Jan-24 20:01N 51°35' W 008°21'3 6.3
2018-Jan-24 19:30N 51°36' W 008°16'3 6.3
2018-Jan-24 19:01N 51°38' W 008°12'4 7.3
2018-Jan-24 18:30N 51°40' W 008°07'4 7.2
2018-Jan-24 18:00N 51°42' W 008°02'4 7.2
2018-Jan-24 17:30N 51°43' W 007°57'4 7.1
2018-Jan-24 17:01N 51°45' W 007°52'4 7.9
2018-Jan-24 16:30N 51°47' W 007°46'4 8.3
2018-Jan-24 16:00N 51°49' W 007°41'4 7.7
2018-Jan-24 15:31N 51°51' W 007°35'4 8.0
2018-Jan-24 15:00N 51°53' W 007°30'4 8.1
2018-Jan-24 14:31N 51°55' W 007°24'4 8.1
2018-Jan-24 14:00N 51°57' W 007°18'4 7.8
2018-Jan-24 13:31N 51°58' W 007°12'4 7.0
2018-Jan-24 13:00N 51°59' W 007°07'4 7.3
2018-Jan-24 12:31N 52°01' W 007°01'3 6.2
2018-Jan-24 12:01N 52°02' W 006°57'2 3.7
2018-Jan-24 11:30N 52°03' W 006°54'1 1.6
2018-Jan-24 11:00N 52°03' W 006°52'1 1.4
2018-Jan-24 10:30N 52°03' W 006°51'611.8
2018-Jan-24 10:00N 51°57' W 006°52'612.0
2018-Jan-24 09:30N 51°51' W 006°53'612.0
2018-Jan-24 09:00N 51°45' W 006°53'611.7
2018-Jan-24 08:30N 51°39' W 006°53'6910.5
2018-Jan-24 01:58N 50°37' W 006°06'511.6
2018-Jan-24 01:30N 50°32' W 006°02'611.6
2018-Jan-24 01:00N 50°27' W 005°58'611.5
2018-Jan-24 00:30N 50°22' W 005°55'611.9
2018-Jan-24 00:01N 50°16' W 005°54'611.5
2018-Jan-23 23:31N 50°10' W 005°54'611.4
2018-Jan-23 23:00N 50°04' W 005°54'611.4
2018-Jan-23 22:31N 49°59' W 005°54'611.6
2018-Jan-23 22:00N 49°53' W 005°54'612.1
2018-Jan-23 21:30N 49°47' W 005°54'612.2
2018-Jan-23 20:58N 49°40' W 005°54'  
Track history (hours):
 
Tides and Currents Weather Stations Pressure Air Temp Water Temp Dewpoint Dewpoint Depression Visibility Wind Speed Wind Dir Waves Ship Positions

BBC Kwiatkowski

Last reported at 2018-Feb-02 20:43 UTC. Time now 2018-Feb-20 14:08 UTC.
Position N 35°50' W 025°23'.
Warning: this ship's position is 17 days out of date.

Length 122 m; draft 5.6 m.

Type: Ship. MMSI: 305240000.

Date/timePositionNaut miles runAvg speedWind from/ knotsBaromVisibWave heightAir tempDewpointWater temp
2018-Feb-02 20:43N 35°50' W 025°23'513.1
2018-Feb-02 20:22N 35°54' W 025°20'513.1
2018-Feb-02 20:00N 35°59' W 025°17'1313.0
2018-Feb-02 19:00N 36°10' W 025°09'713.0
2018-Feb-02 18:30N 36°15' W 025°04'713.3
2018-Feb-02 18:00N 36°21' W 024°60'613.0
2018-Feb-02 17:30N 36°26' W 024°55'613.0
2018-Feb-02 17:00N 36°31' W 024°51'713.2
2018-Feb-02 16:31N 36°37' W 024°46'1313.2
2018-Feb-02 15:30N 36°48' W 024°38'1312.8
2018-Feb-02 14:30N 36°59' W 024°29'612.8
2018-Feb-02 14:00N 37°04' W 024°24'612.6
2018-Feb-02 13:31N 37°09' W 024°20'612.8
2018-Feb-02 13:00N 37°14' W 024°15'713.3
2018-Feb-02 12:30N 37°20' W 024°10'713.1
2018-Feb-02 12:01N 37°26' W 024°06'612.8
2018-Feb-02 11:31N 37°31' W 024°02'713.1
2018-Feb-02 11:00N 37°36' W 023°57'612.7
2018-Feb-02 10:30N 37°42' W 023°53'612.7
2018-Feb-02 10:00N 37°47' W 023°49'613.0
2018-Feb-02 09:30N 37°53' W 023°45'612.9
2018-Feb-02 09:00N 37°58' W 023°40'712.9
2018-Feb-02 08:30N 38°04' W 023°36'612.8
2018-Feb-02 08:00N 38°09' W 023°32'712.5
2018-Feb-02 07:28N 38°15' W 023°28'  
2018-Jan-29 16:00N 52°22' W 010°12'14 1.4
2018-Jan-29 06:20N 52°16' W 009°52'0 0.0
2018-Jan-28 19:50N 52°16' W 009°52'0 0.0
2018-Jan-27 22:29N 52°16' W 009°52'0 0.0
2018-Jan-27 20:04N 52°16' W 009°52'0 0.0
2018-Jan-27 19:38N 52°16' W 009°52'0 0.0
2018-Jan-27 11:07N 52°16' W 009°52'0 0.0
2018-Jan-27 06:22N 52°16' W 009°52'0 0.0
2018-Jan-27 00:10N 52°16' W 009°52'0 0.0
2018-Jan-26 22:44N 52°16' W 009°52'0 0.0
2018-Jan-26 21:13N 52°16' W 009°52'0 0.0
2018-Jan-26 19:46N 52°16' W 009°52'0 0.0
2018-Jan-26 19:16N 52°16' W 009°52'0 0.0
2018-Jan-26 17:16N 52°16' W 009°52'0 0.0
2018-Jan-26 15:21N 52°16' W 009°52'0 0.0
2018-Jan-26 13:50N 52°16' W 009°52'0 0.0
2018-Jan-26 12:22N 52°16' W 009°52'0 0.0
2018-Jan-26 11:53N 52°16' W 009°52'9 3.4
2018-Jan-26 09:18N 52°23' W 010°01'2 4.7
2018-Jan-26 08:55N 52°24' W 010°04'8 2.8
2018-Jan-26 06:09N 52°22' W 010°16'1 4.9
2018-Jan-26 05:55N 52°22' W 010°18'3 5.8
2018-Jan-26 05:25N 52°22' W 010°23'9 4.7
2018-Jan-26 03:31N 52°22' W 010°37'1 4.5
2018-Jan-26 03:22N 52°22' W 010°39'16 3.2
2018-Jan-25 22:15N 52°15' W 011°03'2 5.4
2018-Jan-25 21:55N 52°14' W 011°01'2 5.4
2018-Jan-25 21:27N 52°12' W 010°59'10 5.5
2018-Jan-25 19:37N 52°02' W 010°52'2 7.0
2018-Jan-25 19:24N 52°01' W 010°51'3 6.6
2018-Jan-25 18:55N 51°58' W 010°51'4 7.5
2018-Jan-25 18:19N 51°53' W 010°49'3 5.8
2018-Jan-25 17:46N 51°50' W 010°47'18 5.9
2018-Jan-25 14:41N 51°35' W 010°32'1 5.5
2018-Jan-25 14:30N 51°34' W 010°31'3 5.5
2018-Jan-25 13:59N 51°32' W 010°27'2 5.2
2018-Jan-25 13:30N 51°31' W 010°24'3 5.4
2018-Jan-25 13:00N 51°29' W 010°20'3 5.6
2018-Jan-25 12:30N 51°28' W 010°16'3 5.8
2018-Jan-25 12:00N 51°27' W 010°12'3 5.4
2018-Jan-25 11:31N 51°25' W 010°08'3 5.0
2018-Jan-25 11:00N 51°24' W 010°05'2 4.8
2018-Jan-25 10:30N 51°23' W 010°01'2 4.9
2018-Jan-25 10:00N 51°23' W 009°57'2 4.6
2018-Jan-25 09:30N 51°22' W 009°54'2 4.4
2018-Jan-25 09:00N 51°21' W 009°51'3 5.1
2018-Jan-25 08:31N 51°20' W 009°47'2 3.5
2018-Jan-25 08:01N 51°19' W 009°44'1 2.6
2018-Jan-25 07:31N 51°20' W 009°42'1 2.5
2018-Jan-25 07:01N 51°20' W 009°40'1 2.6
2018-Jan-25 06:31N 51°20' W 009°38'2 3.2
2018-Jan-25 06:01N 51°20' W 009°36'2 3.2
2018-Jan-25 05:31N 51°20' W 009°33'2 3.6
2018-Jan-25 05:00N 51°21' W 009°30'2 3.3
2018-Jan-25 04:30N 51°22' W 009°28'2 4.4
2018-Jan-25 04:01N 51°22' W 009°25'2 4.6
2018-Jan-25 03:30N 51°23' W 009°21'2 4.7
2018-Jan-25 03:01N 51°24' W 009°17'3 5.2
2018-Jan-25 02:31N 51°24' W 009°14'2 5.0
2018-Jan-25 02:01N 51°25' W 009°10'2 4.9
2018-Jan-25 01:31N 51°25' W 009°06'3 5.1
2018-Jan-25 01:00N 51°26' W 009°02'2 4.6
2018-Jan-25 00:31N 51°27' W 008°58'3 5.6
2018-Jan-25 00:01N 51°27' W 008°54'3 5.4
2018-Jan-24 23:30N 51°28' W 008°50'3 5.7
2018-Jan-24 23:00N 51°29' W 008°45'3 6.0
2018-Jan-24 22:31N 51°30' W 008°41'2 4.9
2018-Jan-24 22:00N 51°31' W 008°37'3 5.3
2018-Jan-24 21:30N 51°32' W 008°33'3 5.4
2018-Jan-24 21:01N 51°32' W 008°29'3 5.2
2018-Jan-24 20:30N 51°33' W 008°25'3 6.1
2018-Jan-24 20:01N 51°35' W 008°21'3 6.3
2018-Jan-24 19:30N 51°36' W 008°16'3 6.3
2018-Jan-24 19:01N 51°38' W 008°12'4 7.3
2018-Jan-24 18:30N 51°40' W 008°07'4 7.2
2018-Jan-24 18:00N 51°42' W 008°02'4 7.2
2018-Jan-24 17:30N 51°43' W 007°57'4 7.1
2018-Jan-24 17:01N 51°45' W 007°52'4 7.9
2018-Jan-24 16:30N 51°47' W 007°46'4 8.3
2018-Jan-24 16:00N 51°49' W 007°41'4 7.7
2018-Jan-24 15:31N 51°51' W 007°35'4 8.0
2018-Jan-24 15:00N 51°53' W 007°30'4 8.1
2018-Jan-24 14:31N 51°55' W 007°24'4 8.1
2018-Jan-24 14:00N 51°57' W 007°18'4 7.8
2018-Jan-24 13:31N 51°58' W 007°12'4 7.0
2018-Jan-24 13:00N 51°59' W 007°07'4 7.3
2018-Jan-24 12:31N 52°01' W 007°01'3 6.2
2018-Jan-24 12:01N 52°02' W 006°57'2 3.7
2018-Jan-24 11:30N 52°03' W 006°54'1 1.6
2018-Jan-24 11:00N 52°03' W 006°52'1 1.4
2018-Jan-24 10:30N 52°03' W 006°51'611.8
2018-Jan-24 10:00N 51°57' W 006°52'612.0
2018-Jan-24 09:30N 51°51' W 006°53'612.0
2018-Jan-24 09:00N 51°45' W 006°53'611.7
2018-Jan-24 08:30N 51°39' W 006°53'6910.5
2018-Jan-24 01:58N 50°37' W 006°06'511.6
2018-Jan-24 01:30N 50°32' W 006°02'611.6
2018-Jan-24 01:00N 50°27' W 005°58'611.5
2018-Jan-24 00:30N 50°22' W 005°55'611.9
2018-Jan-24 00:01N 50°16' W 005°54'611.5
2018-Jan-23 23:31N 50°10' W 005°54'611.4
2018-Jan-23 23:00N 50°04' W 005°54'611.4
2018-Jan-23 22:31N 49°59' W 005°54'611.6
2018-Jan-23 22:00N 49°53' W 005°54'612.1
2018-Jan-23 21:30N 49°47' W 005°54'612.2
2018-Jan-23 20:58N 49°40' W 005°54'  

Dump ship's entire track history